createdAt,value
2024-01-16T00:00:38.383Z,100
2024-01-16T00:15:38.257Z,100
2024-01-16T00:30:39.976Z,100
2024-01-16T00:45:39.931Z,100
2024-01-16T01:00:41.092Z,100
2024-01-16T01:15:42.812Z,100
2024-01-16T01:30:42.663Z,100
2024-01-16T01:45:44.109Z,100
2024-01-16T02:00:44.215Z,100
2024-01-16T02:15:44.959Z,100
2024-01-16T02:30:45.599Z,100
2024-01-16T02:45:46.830Z,100
2024-01-16T03:00:47.219Z,100
2024-01-16T03:15:47.368Z,100
2024-01-16T03:30:49.473Z,100
2024-01-16T03:45:49.059Z,100
2024-01-16T04:00:50.212Z,100
2024-01-16T04:15:51.417Z,100
2024-01-16T04:30:50.907Z,100
2024-01-16T04:45:51.692Z,100
2024-01-16T05:00:52.651Z,100
2024-01-16T05:15:52.913Z,100
2024-01-16T05:30:55.851Z,100
2024-01-16T05:45:53.683Z,100
2024-01-16T06:00:54.710Z,100
2024-01-16T06:15:56.330Z,100
2024-01-16T06:30:57.178Z,100
2024-01-16T06:45:57.467Z,100
2024-01-16T06:50:16.972Z,100
2024-01-16T07:05:07.672Z,100
2024-01-16T07:20:08.443Z,100
2024-01-16T07:35:09.406Z,100
2024-01-16T07:50:09.557Z,100
2024-01-16T08:05:10.002Z,100
2024-01-16T08:20:19.779Z,100
2024-01-16T08:35:19.477Z,100
2024-01-16T08:50:21.637Z,100
2024-01-16T09:05:19.629Z,100
2024-01-16T09:20:20.639Z,100
2024-01-16T09:35:20.408Z,100
2024-01-16T09:50:21.665Z,100
2024-01-16T10:05:19.739Z,100
2024-01-16T10:20:22.168Z,100
2024-01-16T10:35:20.126Z,100
2024-01-16T10:50:23.186Z,100
2024-01-16T11:05:21.372Z,100
2024-01-16T11:21:14.414Z,100
2024-01-16T11:35:21.954Z,100
2024-01-16T11:50:24.870Z,77.5
2024-01-16T12:05:22.977Z,59.4
2024-01-16T12:20:24.734Z,44
2024-01-16T12:35:23.513Z,45.3
2024-01-16T12:50:25.917Z,43.7
2024-01-16T13:05:24.201Z,43.4
2024-01-16T13:20:26.112Z,46
2024-01-16T13:35:25.316Z,45.3
2024-01-16T13:50:26.877Z,42
2024-01-16T14:05:26.835Z,54.6
2024-01-16T14:20:29.640Z,56.4
2024-01-16T14:35:28.081Z,51.3
2024-01-16T14:50:29.309Z,43.7
2024-01-16T15:05:29.485Z,73.9
2024-01-16T15:20:30.000Z,100
2024-01-16T15:35:31.230Z,100
2024-01-16T15:50:31.195Z,100
2024-01-16T16:05:31.822Z,100
2024-01-16T16:20:32.888Z,100
2024-01-16T16:35:33.051Z,100
2024-01-16T16:50:33.754Z,100
2024-01-16T17:05:35.557Z,100
2024-01-16T17:20:35.240Z,100
2024-01-16T17:35:36.225Z,100
2024-01-16T17:50:36.761Z,100
2024-01-16T18:05:37.910Z,100
2024-01-16T18:20:40.981Z,100
2024-01-16T18:35:39.445Z,100
2024-01-16T18:50:39.579Z,100
2024-01-16T19:05:40.565Z,100
2024-01-16T19:20:41.030Z,100
2024-01-16T19:35:41.723Z,100
2024-01-16T19:50:42.353Z,100
2024-01-16T20:05:42.844Z,100
2024-01-16T20:20:43.084Z,100
2024-01-16T20:35:44.412Z,100
2024-01-16T20:50:44.796Z,100
2024-01-16T21:05:46.680Z,100
2024-01-16T21:20:46.248Z,100
2024-01-16T21:35:46.748Z,100
2024-01-16T21:50:48.112Z,100
2024-01-16T22:05:48.684Z,100
2024-01-16T22:20:49.419Z,100
2024-01-16T22:35:49.631Z,100
2024-01-16T22:50:51.506Z,100
2024-01-16T23:00:44.115Z,100
2024-01-16T23:15:41.066Z,100
2024-01-16T23:30:43.527Z,100
2024-01-16T23:45:43.396Z,100
